sensor_id;sensor_type;location;lat;lon;timestamp;P1;durP1;ratioP1;P2;durP2;ratioP2
12383;SDS011;6256;63.808;20.336;2023-08-07T00:00:33;0.93;;;0.82;;
12383;SDS011;6256;63.808;20.336;2023-08-07T00:02:58;1.77;;;1.00;;
12383;SDS011;6256;63.808;20.336;2023-08-07T00:05:24;1.40;;;1.20;;
12383;SDS011;6256;63.808;20.336;2023-08-07T00:07:50;1.30;;;1.15;;
12383;SDS011;6256;63.808;20.336;2023-08-07T00:10:16;1.15;;;1.05;;
12383;SDS011;6256;63.808;20.336;2023-08-07T00:12:42;1.05;;;0.85;;
12383;SDS011;6256;63.808;20.336;2023-08-07T00:15:08;1.08;;;0.98;;
12383;SDS011;6256;63.808;20.336;2023-08-07T00:17:34;1.77;;;1.20;;
12383;SDS011;6256;63.808;20.336;2023-08-07T00:20:00;1.25;;;1.15;;
12383;SDS011;6256;63.808;20.336;2023-08-07T00:22:26;1.10;;;1.00;;
12383;SDS011;6256;63.808;20.336;2023-08-07T00:24:52;1.33;;;1.10;;
12383;SDS011;6256;63.808;20.336;2023-08-07T00:27:18;1.50;;;1.20;;
12383;SDS011;6256;63.808;20.336;2023-08-07T00:29:43;2.40;;;1.25;;
12383;SDS011;6256;63.808;20.336;2023-08-07T00:32:09;1.65;;;1.27;;
12383;SDS011;6256;63.808;20.336;2023-08-07T00:34:35;1.35;;;1.25;;
12383;SDS011;6256;63.808;20.336;2023-08-07T00:37:00;1.10;;;1.00;;
12383;SDS011;6256;63.808;20.336;2023-08-07T00:39:26;2.70;;;1.23;;
12383;SDS011;6256;63.808;20.336;2023-08-07T00:41:52;1.88;;;1.55;;
12383;SDS011;6256;63.808;20.336;2023-08-07T00:44:19;2.28;;;1.02;;
12383;SDS011;6256;63.808;20.336;2023-08-07T00:46:45;1.40;;;1.30;;
12383;SDS011;6256;63.808;20.336;2023-08-07T00:49:11;1.27;;;1.13;;
12383;SDS011;6256;63.808;20.336;2023-08-07T00:51:37;1.30;;;1.20;;
12383;SDS011;6256;63.808;20.336;2023-08-07T00:54:04;1.27;;;1.17;;
12383;SDS011;6256;63.808;20.336;2023-08-07T00:56:31;1.55;;;1.33;;
12383;SDS011;6256;63.808;20.336;2023-08-07T00:58:58;2.63;;;1.33;;
12383;SDS011;6256;63.808;20.336;2023-08-07T01:01:24;2.30;;;1.10;;
12383;SDS011;6256;63.808;20.336;2023-08-07T01:03:50;1.23;;;1.13;;
12383;SDS011;6256;63.808;20.336;2023-08-07T01:06:16;2.00;;;1.15;;
12383;SDS011;6256;63.808;20.336;2023-08-07T01:08:42;3.28;;;1.80;;
12383;SDS011;6256;63.808;20.336;2023-08-07T01:11:22;1.75;;;1.30;;
12383;SDS011;6256;63.808;20.336;2023-08-07T01:13:51;1.48;;;1.13;;
12383;SDS011;6256;63.808;20.336;2023-08-07T01:16:34;1.65;;;1.35;;
12383;SDS011;6256;63.808;20.336;2023-08-07T01:19:05;1.40;;;1.30;;
12383;SDS011;6256;63.808;20.336;2023-08-07T01:21:38;1.52;;;1.42;;
12383;SDS011;6256;63.808;20.336;2023-08-07T01:24:04;1.38;;;1.27;;
12383;SDS011;6256;63.808;20.336;2023-08-07T01:26:30;1.92;;;1.52;;
12383;SDS011;6256;63.808;20.336;2023-08-07T01:29:20;2.25;;;1.30;;
12383;SDS011;6256;63.808;20.336;2023-08-07T01:31:52;1.55;;;1.45;;
12383;SDS011;6256;63.808;20.336;2023-08-07T01:34:19;1.38;;;1.27;;
12383;SDS011;6256;63.808;20.336;2023-08-07T01:36:49;1.60;;;1.50;;
12383;SDS011;6256;63.808;20.336;2023-08-07T01:39:16;2.13;;;1.52;;
12383;SDS011;6256;63.808;20.336;2023-08-07T01:41:44;1.92;;;1.33;;
12383;SDS011;6256;63.808;20.336;2023-08-07T01:44:11;1.50;;;1.35;;
12383;SDS011;6256;63.808;20.336;2023-08-07T01:46:37;1.52;;;1.42;;
12383;SDS011;6256;63.808;20.336;2023-08-07T01:49:03;2.08;;;1.50;;
12383;SDS011;6256;63.808;20.336;2023-08-07T01:51:29;2.40;;;1.60;;
12383;SDS011;6256;63.808;20.336;2023-08-07T01:53:55;1.88;;;1.58;;
12383;SDS011;6256;63.808;20.336;2023-08-07T01:56:20;1.75;;;1.40;;
12383;SDS011;6256;63.808;20.336;2023-08-07T01:58:46;1.83;;;1.33;;
12383;SDS011;6256;63.808;20.336;2023-08-07T02:01:12;1.73;;;1.42;;
12383;SDS011;6256;63.808;20.336;2023-08-07T02:03:37;2.55;;;1.75;;
12383;SDS011;6256;63.808;20.336;2023-08-07T02:06:03;1.58;;;1.48;;
12383;SDS011;6256;63.808;20.336;2023-08-07T02:08:29;3.40;;;1.80;;
12383;SDS011;6256;63.808;20.336;2023-08-07T02:10:54;2.42;;;1.48;;
12383;SDS011;6256;63.808;20.336;2023-08-07T02:13:20;2.08;;;1.60;;
12383;SDS011;6256;63.808;20.336;2023-08-07T02:15:46;1.75;;;1.50;;
12383;SDS011;6256;63.808;20.336;2023-08-07T02:18:12;2.08;;;1.70;;
12383;SDS011;6256;63.808;20.336;2023-08-07T02:20:37;2.53;;;1.70;;
12383;SDS011;6256;63.808;20.336;2023-08-07T02:23:03;1.65;;;1.33;;
12383;SDS011;6256;63.808;20.336;2023-08-07T02:25:29;1.80;;;1.58;;
12383;SDS011;6256;63.808;20.336;2023-08-07T02:27:55;1.88;;;1.73;;
12383;SDS011;6256;63.808;20.336;2023-08-07T02:30:20;2.40;;;1.58;;
12383;SDS011;6256;63.808;20.336;2023-08-07T02:32:46;1.73;;;1.63;;
12383;SDS011;6256;63.808;20.336;2023-08-07T02:35:12;1.88;;;1.30;;
12383;SDS011;6256;63.808;20.336;2023-08-07T02:37:37;3.60;;;1.65;;
12383;SDS011;6256;63.808;20.336;2023-08-07T02:40:03;2.88;;;1.80;;
12383;SDS011;6256;63.808;20.336;2023-08-07T02:42:29;1.83;;;1.40;;
12383;SDS011;6256;63.808;20.336;2023-08-07T02:44:55;2.08;;;1.75;;
12383;SDS011;6256;63.808;20.336;2023-08-07T02:47:21;2.00;;;1.80;;
12383;SDS011;6256;63.808;20.336;2023-08-07T02:49:46;2.58;;;1.80;;
12383;SDS011;6256;63.808;20.336;2023-08-07T02:52:12;2.28;;;1.60;;
12383;SDS011;6256;63.808;20.336;2023-08-07T02:54:38;2.42;;;1.65;;
12383;SDS011;6256;63.808;20.336;2023-08-07T02:57:04;1.98;;;1.67;;
12383;SDS011;6256;63.808;20.336;2023-08-07T02:59:29;2.03;;;1.85;;
12383;SDS011;6256;63.808;20.336;2023-08-07T03:01:55;2.58;;;1.85;;
12383;SDS011;6256;63.808;20.336;2023-08-07T03:04:21;2.95;;;2.40;;
12383;SDS011;6256;63.808;20.336;2023-08-07T03:06:47;2.50;;;2.08;;
12383;SDS011;6256;63.808;20.336;2023-08-07T03:09:12;2.05;;;1.60;;
12383;SDS011;6256;63.808;20.336;2023-08-07T03:11:38;1.85;;;1.70;;
12383;SDS011;6256;63.808;20.336;2023-08-07T03:14:04;2.17;;;1.80;;
12383;SDS011;6256;63.808;20.336;2023-08-07T03:16:29;3.42;;;2.13;;
12383;SDS011;6256;63.808;20.336;2023-08-07T03:18:55;2.60;;;1.60;;
12383;SDS011;6256;63.808;20.336;2023-08-07T03:21:21;2.55;;;2.17;;
12383;SDS011;6256;63.808;20.336;2023-08-07T03:23:47;2.75;;;2.05;;
12383;SDS011;6256;63.808;20.336;2023-08-07T03:26:12;3.33;;;2.22;;
12383;SDS011;6256;63.808;20.336;2023-08-07T03:28:38;2.67;;;2.00;;
12383;SDS011;6256;63.808;20.336;2023-08-07T03:31:04;2.20;;;2.00;;
12383;SDS011;6256;63.808;20.336;2023-08-07T03:33:30;3.38;;;2.35;;
12383;SDS011;6256;63.808;20.336;2023-08-07T03:35:56;2.22;;;2.03;;
12383;SDS011;6256;63.808;20.336;2023-08-07T03:38:21;3.42;;;2.50;;
12383;SDS011;6256;63.808;20.336;2023-08-07T03:40:47;2.72;;;2.38;;
12383;SDS011;6256;63.808;20.336;2023-08-07T03:43:13;2.80;;;2.45;;
12383;SDS011;6256;63.808;20.336;2023-08-07T03:45:39;4.18;;;2.28;;
12383;SDS011;6256;63.808;20.336;2023-08-07T03:48:05;2.75;;;2.33;;
12383;SDS011;6256;63.808;20.336;2023-08-07T03:50:31;3.63;;;2.40;;
12383;SDS011;6256;63.808;20.336;2023-08-07T03:53:00;5.05;;;2.90;;
12383;SDS011;6256;63.808;20.336;2023-08-07T03:55:26;3.22;;;2.70;;
12383;SDS011;6256;63.808;20.336;2023-08-07T03:57:52;3.63;;;2.47;;
12383;SDS011;6256;63.808;20.336;2023-08-07T04:00:17;3.22;;;2.38;;
12383;SDS011;6256;63.808;20.336;2023-08-07T04:02:43;3.33;;;2.63;;
12383;SDS011;6256;63.808;20.336;2023-08-07T04:05:09;3.25;;;2.42;;
12383;SDS011;6256;63.808;20.336;2023-08-07T04:07:35;3.50;;;2.60;;
12383;SDS011;6256;63.808;20.336;2023-08-07T04:10:01;3.58;;;2.50;;
12383;SDS011;6256;63.808;20.336;2023-08-07T04:12:27;2.70;;;2.33;;
12383;SDS011;6256;63.808;20.336;2023-08-07T04:14:53;3.60;;;3.05;;
12383;SDS011;6256;63.808;20.336;2023-08-07T04:17:18;4.18;;;2.60;;
12383;SDS011;6256;63.808;20.336;2023-08-07T04:19:44;5.45;;;3.35;;
12383;SDS011;6256;63.808;20.336;2023-08-07T04:22:10;2.90;;;2.53;;
12383;SDS011;6256;63.808;20.336;2023-08-07T04:24:35;2.95;;;2.72;;
12383;SDS011;6256;63.808;20.336;2023-08-07T04:27:01;3.80;;;2.53;;
12383;SDS011;6256;63.808;20.336;2023-08-07T04:29:27;3.50;;;2.70;;
12383;SDS011;6256;63.808;20.336;2023-08-07T04:31:53;3.15;;;2.85;;
12383;SDS011;6256;63.808;20.336;2023-08-07T04:34:19;3.50;;;3.17;;
12383;SDS011;6256;63.808;20.336;2023-08-07T04:36:45;4.13;;;2.97;;
12383;SDS011;6256;63.808;20.336;2023-08-07T04:39:11;2.97;;;2.67;;
12383;SDS011;6256;63.808;20.336;2023-08-07T04:41:38;5.05;;;2.85;;
12383;SDS011;6256;63.808;20.336;2023-08-07T04:44:04;3.30;;;2.88;;
12383;SDS011;6256;63.808;20.336;2023-08-07T04:46:30;4.10;;;3.00;;
12383;SDS011;6256;63.808;20.336;2023-08-07T04:48:55;5.35;;;3.10;;
12383;SDS011;6256;63.808;20.336;2023-08-07T04:51:21;3.55;;;3.25;;
12383;SDS011;6256;63.808;20.336;2023-08-07T04:53:47;4.25;;;3.10;;
12383;SDS011;6256;63.808;20.336;2023-08-07T04:56:15;6.68;;;3.13;;
12383;SDS011;6256;63.808;20.336;2023-08-07T04:58:42;4.53;;;3.15;;
12383;SDS011;6256;63.808;20.336;2023-08-07T05:01:08;3.83;;;2.90;;
12383;SDS011;6256;63.808;20.336;2023-08-07T05:03:34;3.85;;;2.95;;
12383;SDS011;6256;63.808;20.336;2023-08-07T05:06:00;2.80;;;2.60;;
12383;SDS011;6256;63.808;20.336;2023-08-07T05:08:26;3.78;;;2.97;;
12383;SDS011;6256;63.808;20.336;2023-08-07T05:10:52;5.25;;;2.88;;
12383;SDS011;6256;63.808;20.336;2023-08-07T05:13:18;5.47;;;3.05;;
12383;SDS011;6256;63.808;20.336;2023-08-07T05:15:43;3.80;;;3.50;;
12383;SDS011;6256;63.808;20.336;2023-08-07T05:18:11;4.25;;;3.60;;
12383;SDS011;6256;63.808;20.336;2023-08-07T05:20:37;5.72;;;3.17;;
12383;SDS011;6256;63.808;20.336;2023-08-07T05:23:03;3.78;;;3.33;;
12383;SDS011;6256;63.808;20.336;2023-08-07T05:25:28;4.15;;;3.13;;
12383;SDS011;6256;63.808;20.336;2023-08-07T05:27:54;3.33;;;2.80;;
12383;SDS011;6256;63.808;20.336;2023-08-07T05:30:20;3.67;;;3.15;;
12383;SDS011;6256;63.808;20.336;2023-08-07T05:32:45;3.47;;;3.15;;
12383;SDS011;6256;63.808;20.336;2023-08-07T05:35:11;5.72;;;3.33;;
12383;SDS011;6256;63.808;20.336;2023-08-07T05:37:37;5.47;;;3.67;;
12383;SDS011;6256;63.808;20.336;2023-08-07T05:40:03;4.03;;;3.20;;
12383;SDS011;6256;63.808;20.336;2023-08-07T05:42:29;4.57;;;3.10;;
12383;SDS011;6256;63.808;20.336;2023-08-07T05:44:55;3.97;;;3.53;;
12383;SDS011;6256;63.808;20.336;2023-08-07T05:47:21;4.60;;;3.42;;
12383;SDS011;6256;63.808;20.336;2023-08-07T05:49:46;3.28;;;2.75;;
12383;SDS011;6256;63.808;20.336;2023-08-07T05:52:14;4.38;;;3.53;;
12383;SDS011;6256;63.808;20.336;2023-08-07T05:54:40;4.07;;;3.40;;
12383;SDS011;6256;63.808;20.336;2023-08-07T05:57:06;3.63;;;3.20;;
12383;SDS011;6256;63.808;20.336;2023-08-07T05:59:32;3.67;;;3.30;;
12383;SDS011;6256;63.808;20.336;2023-08-07T06:01:59;4.45;;;3.65;;
12383;SDS011;6256;63.808;20.336;2023-08-07T06:04:25;4.47;;;3.15;;
12383;SDS011;6256;63.808;20.336;2023-08-07T06:06:51;3.95;;;3.53;;
12383;SDS011;6256;63.808;20.336;2023-08-07T06:09:16;3.85;;;3.45;;
12383;SDS011;6256;63.808;20.336;2023-08-07T06:11:42;5.70;;;3.70;;
12383;SDS011;6256;63.808;20.336;2023-08-07T06:14:08;3.38;;;3.08;;
12383;SDS011;6256;63.808;20.336;2023-08-07T06:16:34;3.97;;;3.38;;
12383;SDS011;6256;63.808;20.336;2023-08-07T06:19:00;3.50;;;3.17;;
12383;SDS011;6256;63.808;20.336;2023-08-07T06:21:25;4.00;;;3.20;;
12383;SDS011;6256;63.808;20.336;2023-08-07T06:23:53;4.38;;;3.97;;
12383;SDS011;6256;63.808;20.336;2023-08-07T06:26:19;4.10;;;3.70;;
12383;SDS011;6256;63.808;20.336;2023-08-07T06:28:45;4.40;;;3.38;;
12383;SDS011;6256;63.808;20.336;2023-08-07T06:31:11;3.65;;;3.35;;
12383;SDS011;6256;63.808;20.336;2023-08-07T06:33:37;3.90;;;3.22;;
12383;SDS011;6256;63.808;20.336;2023-08-07T06:36:03;4.90;;;3.63;;
12383;SDS011;6256;63.808;20.336;2023-08-07T06:38:29;4.95;;;3.25;;
12383;SDS011;6256;63.808;20.336;2023-08-07T06:40:55;3.92;;;3.55;;
12383;SDS011;6256;63.808;20.336;2023-08-07T06:43:21;4.43;;;3.35;;
12383;SDS011;6256;63.808;20.336;2023-08-07T06:45:50;4.10;;;3.70;;
12383;SDS011;6256;63.808;20.336;2023-08-07T06:48:16;4.68;;;3.75;;
12383;SDS011;6256;63.808;20.336;2023-08-07T06:50:41;4.00;;;3.42;;
12383;SDS011;6256;63.808;20.336;2023-08-07T06:53:07;4.10;;;3.70;;
12383;SDS011;6256;63.808;20.336;2023-08-07T06:55:33;3.90;;;3.55;;
12383;SDS011;6256;63.808;20.336;2023-08-07T06:57:59;3.75;;;3.13;;
12383;SDS011;6256;63.808;20.336;2023-08-07T07:00:25;3.75;;;3.30;;
12383;SDS011;6256;63.808;20.336;2023-08-07T07:02:51;4.05;;;3.75;;
12383;SDS011;6256;63.808;20.336;2023-08-07T07:05:18;4.68;;;3.83;;
12383;SDS011;6256;63.808;20.336;2023-08-07T07:07:43;5.03;;;3.60;;
12383;SDS011;6256;63.808;20.336;2023-08-07T07:10:09;4.18;;;3.65;;
12383;SDS011;6256;63.808;20.336;2023-08-07T07:12:35;4.70;;;4.20;;
12383;SDS011;6256;63.808;20.336;2023-08-07T07:15:01;4.85;;;3.90;;
12383;SDS011;6256;63.808;20.336;2023-08-07T07:17:27;5.18;;;4.03;;
12383;SDS011;6256;63.808;20.336;2023-08-07T07:19:56;4.05;;;3.53;;
12383;SDS011;6256;63.808;20.336;2023-08-07T07:22:22;4.18;;;3.80;;
12383;SDS011;6256;63.808;20.336;2023-08-07T07:24:48;5.55;;;4.32;;
12383;SDS011;6256;63.808;20.336;2023-08-07T07:27:13;5.05;;;4.32;;
12383;SDS011;6256;63.808;20.336;2023-08-07T07:29:39;5.65;;;4.47;;
12383;SDS011;6256;63.808;20.336;2023-08-07T07:32:05;5.80;;;4.63;;
12383;SDS011;6256;63.808;20.336;2023-08-07T07:34:31;5.95;;;4.70;;
12383;SDS011;6256;63.808;20.336;2023-08-07T07:36:58;6.13;;;4.45;;
12383;SDS011;6256;63.808;20.336;2023-08-07T07:39:24;5.40;;;4.43;;
12383;SDS011;6256;63.808;20.336;2023-08-07T07:41:50;6.88;;;4.13;;
12383;SDS011;6256;63.808;20.336;2023-08-07T07:44:15;4.60;;;4.05;;
12383;SDS011;6256;63.808;20.336;2023-08-07T07:46:41;6.03;;;4.53;;
12383;SDS011;6256;63.808;20.336;2023-08-07T07:49:07;5.18;;;4.15;;
12383;SDS011;6256;63.808;20.336;2023-08-07T07:51:32;7.03;;;4.80;;
12383;SDS011;6256;63.808;20.336;2023-08-07T07:54:00;5.20;;;4.70;;
12383;SDS011;6256;63.808;20.336;2023-08-07T07:56:26;7.57;;;5.15;;
12383;SDS011;6256;63.808;20.336;2023-08-07T07:58:52;5.55;;;4.80;;
12383;SDS011;6256;63.808;20.336;2023-08-07T08:01:17;5.65;;;4.55;;
12383;SDS011;6256;63.808;20.336;2023-08-07T08:03:43;5.32;;;4.72;;
12383;SDS011;6256;63.808;20.336;2023-08-07T08:06:11;6.65;;;4.72;;
12383;SDS011;6256;63.808;20.336;2023-08-07T08:08:37;4.90;;;4.13;;
12383;SDS011;6256;63.808;20.336;2023-08-07T08:11:03;4.63;;;4.22;;
12383;SDS011;6256;63.808;20.336;2023-08-07T08:13:29;6.60;;;4.80;;
12383;SDS011;6256;63.808;20.336;2023-08-07T08:15:54;6.57;;;4.50;;
12383;SDS011;6256;63.808;20.336;2023-08-07T08:18:20;6.07;;;4.60;;
12383;SDS011;6256;63.808;20.336;2023-08-07T08:20:46;5.97;;;4.13;;
12383;SDS011;6256;63.808;20.336;2023-08-07T08:23:12;6.65;;;4.78;;
12383;SDS011;6256;63.808;20.336;2023-08-07T08:25:38;5.07;;;3.88;;
12383;SDS011;6256;63.808;20.336;2023-08-07T08:28:04;4.75;;;4.30;;
12383;SDS011;6256;63.808;20.336;2023-08-07T08:30:29;5.18;;;4.72;;
12383;SDS011;6256;63.808;20.336;2023-08-07T08:32:55;5.28;;;4.78;;
12383;SDS011;6256;63.808;20.336;2023-08-07T08:35:21;6.13;;;4.90;;
12383;SDS011;6256;63.808;20.336;2023-08-07T08:37:47;6.55;;;4.72;;
12383;SDS011;6256;63.808;20.336;2023-08-07T08:40:13;7.80;;;5.78;;
12383;SDS011;6256;63.808;20.336;2023-08-07T08:42:42;8.18;;;5.32;;
12383;SDS011;6256;63.808;20.336;2023-08-07T08:45:10;6.90;;;5.57;;
12383;SDS011;6256;63.808;20.336;2023-08-07T08:47:38;5.38;;;4.88;;
12383;SDS011;6256;63.808;20.336;2023-08-07T08:50:08;6.85;;;4.63;;
12383;SDS011;6256;63.808;20.336;2023-08-07T08:52:37;6.13;;;5.53;;
12383;SDS011;6256;63.808;20.336;2023-08-07T08:55:07;6.55;;;4.90;;
12383;SDS011;6256;63.808;20.336;2023-08-07T08:57:36;6.63;;;5.30;;
12383;SDS011;6256;63.808;20.336;2023-08-07T09:00:02;8.02;;;5.38;;
12383;SDS011;6256;63.808;20.336;2023-08-07T09:02:46;7.97;;;6.18;;
12383;SDS011;6256;63.808;20.336;2023-08-07T09:05:17;8.05;;;5.95;;
12383;SDS011;6256;63.808;20.336;2023-08-07T09:07:47;6.80;;;5.97;;
12383;SDS011;6256;63.808;20.336;2023-08-07T09:10:14;6.05;;;5.40;;
12383;SDS011;6256;63.808;20.336;2023-08-07T09:12:42;6.25;;;5.60;;
12383;SDS011;6256;63.808;20.336;2023-08-07T09:15:14;6.30;;;5.70;;
12383;SDS011;6256;63.808;20.336;2023-08-07T09:17:41;7.35;;;6.45;;
12383;SDS011;6256;63.808;20.336;2023-08-07T09:20:09;8.30;;;5.80;;
12383;SDS011;6256;63.808;20.336;2023-08-07T09:22:40;8.00;;;5.70;;
12383;SDS011;6256;63.808;20.336;2023-08-07T09:25:06;9.23;;;6.32;;
12383;SDS011;6256;63.808;20.336;2023-08-07T09:27:40;7.13;;;6.00;;
12383;SDS011;6256;63.808;20.336;2023-08-07T09:30:06;6.88;;;5.72;;
12383;SDS011;6256;63.808;20.336;2023-08-07T09:32:36;5.85;;;5.07;;
12383;SDS011;6256;63.808;20.336;2023-08-07T09:35:03;8.07;;;6.20;;
12383;SDS011;6256;63.808;20.336;2023-08-07T09:37:31;7.28;;;5.97;;
12383;SDS011;6256;63.808;20.336;2023-08-07T09:39:59;7.78;;;6.07;;
12383;SDS011;6256;63.808;20.336;2023-08-07T09:42:26;7.75;;;5.63;;
12383;SDS011;6256;63.808;20.336;2023-08-07T09:44:56;8.57;;;6.57;;
12383;SDS011;6256;63.808;20.336;2023-08-07T09:47:25;7.05;;;6.30;;
12383;SDS011;6256;63.808;20.336;2023-08-07T09:49:53;7.65;;;6.15;;
12383;SDS011;6256;63.808;20.336;2023-08-07T09:52:21;7.32;;;5.95;;
12383;SDS011;6256;63.808;20.336;2023-08-07T09:54:49;6.38;;;5.72;;
12383;SDS011;6256;63.808;20.336;2023-08-07T09:57:15;7.30;;;6.43;;
12383;SDS011;6256;63.808;20.336;2023-08-07T09:59:41;6.38;;;5.72;;
12383;SDS011;6256;63.808;20.336;2023-08-07T10:02:07;8.32;;;6.40;;
12383;SDS011;6256;63.808;20.336;2023-08-07T10:04:35;7.88;;;6.50;;
12383;SDS011;6256;63.808;20.336;2023-08-07T10:07:01;7.28;;;6.57;;
12383;SDS011;6256;63.808;20.336;2023-08-07T10:09:27;6.40;;;5.78;;
12383;SDS011;6256;63.808;20.336;2023-08-07T10:11:54;8.23;;;6.20;;
12383;SDS011;6256;63.808;20.336;2023-08-07T10:14:20;7.72;;;5.85;;
12383;SDS011;6256;63.808;20.336;2023-08-07T10:16:47;6.25;;;5.65;;
12383;SDS011;6256;63.808;20.336;2023-08-07T10:19:14;6.80;;;6.10;;
12383;SDS011;6256;63.808;20.336;2023-08-07T10:21:40;8.93;;;6.28;;
12383;SDS011;6256;63.808;20.336;2023-08-07T10:24:07;8.38;;;6.40;;
12383;SDS011;6256;63.808;20.336;2023-08-07T10:26:35;8.00;;;6.32;;
12383;SDS011;6256;63.808;20.336;2023-08-07T10:29:02;8.18;;;6.22;;
12383;SDS011;6256;63.808;20.336;2023-08-07T10:31:32;9.88;;;6.60;;
12383;SDS011;6256;63.808;20.336;2023-08-07T10:33:59;7.35;;;6.50;;
12383;SDS011;6256;63.808;20.336;2023-08-07T10:36:35;7.22;;;6.30;;
12383;SDS011;6256;63.808;20.336;2023-08-07T10:39:11;6.28;;;5.72;;
12383;SDS011;6256;63.808;20.336;2023-08-07T10:41:38;6.72;;;6.13;;
12383;SDS011;6256;63.808;20.336;2023-08-07T10:44:05;9.10;;;6.60;;
12383;SDS011;6256;63.808;20.336;2023-08-07T10:46:46;7.95;;;6.20;;
12383;SDS011;6256;63.808;20.336;2023-08-07T10:49:29;6.88;;;6.07;;
12383;SDS011;6256;63.808;20.336;2023-08-07T10:52:12;6.43;;;5.80;;
12383;SDS011;6256;63.808;20.336;2023-08-07T10:54:46;6.53;;;5.75;;
12383;SDS011;6256;63.808;20.336;2023-08-07T10:57:14;6.15;;;5.55;;
12383;SDS011;6256;63.808;20.336;2023-08-07T11:02:21;8.70;;;6.13;;
12383;SDS011;6256;63.808;20.336;2023-08-07T11:04:50;7.88;;;6.15;;
12383;SDS011;6256;63.808;20.336;2023-08-07T11:07:26;7.65;;;5.55;;
12383;SDS011;6256;63.808;20.336;2023-08-07T11:09:53;6.60;;;5.97;;
12383;SDS011;6256;63.808;20.336;2023-08-07T11:12:20;6.63;;;5.35;;
12383;SDS011;6256;63.808;20.336;2023-08-07T11:14:45;6.57;;;5.68;;
12383;SDS011;6256;63.808;20.336;2023-08-07T11:17:12;7.13;;;5.60;;
12383;SDS011;6256;63.808;20.336;2023-08-07T11:19:38;6.47;;;5.88;;
12383;SDS011;6256;63.808;20.336;2023-08-07T11:22:04;6.68;;;6.03;;
12383;SDS011;6256;63.808;20.336;2023-08-07T11:24:30;6.72;;;5.20;;
12383;SDS011;6256;63.808;20.336;2023-08-07T11:26:56;5.85;;;5.35;;
12383;SDS011;6256;63.808;20.336;2023-08-07T11:29:22;6.35;;;5.07;;
12383;SDS011;6256;63.808;20.336;2023-08-07T11:31:50;5.22;;;4.63;;
12383;SDS011;6256;63.808;20.336;2023-08-07T11:34:19;5.30;;;4.82;;
12383;SDS011;6256;63.808;20.336;2023-08-07T11:36:46;5.53;;;4.97;;
12383;SDS011;6256;63.808;20.336;2023-08-07T11:39:12;6.28;;;4.85;;
12383;SDS011;6256;63.808;20.336;2023-08-07T11:41:39;6.28;;;5.72;;
12383;SDS011;6256;63.808;20.336;2023-08-07T11:44:07;5.78;;;5.28;;
12383;SDS011;6256;63.808;20.336;2023-08-07T11:46:33;7.00;;;5.45;;
12383;SDS011;6256;63.808;20.336;2023-08-07T11:48:59;7.75;;;6.13;;
12383;SDS011;6256;63.808;20.336;2023-08-07T11:51:25;6.53;;;5.18;;
12383;SDS011;6256;63.808;20.336;2023-08-07T11:53:51;7.85;;;7.03;;
12383;SDS011;6256;63.808;20.336;2023-08-07T11:56:21;6.10;;;5.60;;
12383;SDS011;6256;63.808;20.336;2023-08-07T11:58:48;6.95;;;6.25;;
12383;SDS011;6256;63.808;20.336;2023-08-07T12:01:18;9.32;;;5.95;;
12383;SDS011;6256;63.808;20.336;2023-08-07T12:03:52;7.40;;;6.28;;
12383;SDS011;6256;63.808;20.336;2023-08-07T12:06:22;7.15;;;6.38;;
12383;SDS011;6256;63.808;20.336;2023-08-07T12:08:50;7.40;;;6.68;;
12383;SDS011;6256;63.808;20.336;2023-08-07T12:11:18;6.95;;;6.03;;
12383;SDS011;6256;63.808;20.336;2023-08-07T12:13:46;7.22;;;5.90;;
12383;SDS011;6256;63.808;20.336;2023-08-07T12:16:13;6.78;;;6.18;;
12383;SDS011;6256;63.808;20.336;2023-08-07T12:18:46;6.88;;;6.18;;
12383;SDS011;6256;63.808;20.336;2023-08-07T12:21:14;7.65;;;6.35;;
12383;SDS011;6256;63.808;20.336;2023-08-07T12:23:51;6.80;;;6.20;;
12383;SDS011;6256;63.808;20.336;2023-08-07T12:26:19;6.35;;;5.75;;
12383;SDS011;6256;63.808;20.336;2023-08-07T12:28:45;6.32;;;5.65;;
12383;SDS011;6256;63.808;20.336;2023-08-07T12:31:11;5.85;;;5.35;;
12383;SDS011;6256;63.808;20.336;2023-08-07T12:33:36;6.57;;;5.93;;
12383;SDS011;6256;63.808;20.336;2023-08-07T12:36:02;5.72;;;5.20;;
12383;SDS011;6256;63.808;20.336;2023-08-07T12:38:28;6.93;;;6.00;;
12383;SDS011;6256;63.808;20.336;2023-08-07T12:40:54;6.22;;;5.68;;
12383;SDS011;6256;63.808;20.336;2023-08-07T12:43:20;5.70;;;5.10;;
12383;SDS011;6256;63.808;20.336;2023-08-07T12:45:45;5.50;;;4.97;;
12383;SDS011;6256;63.808;20.336;2023-08-07T12:48:11;6.50;;;5.90;;
12383;SDS011;6256;63.808;20.336;2023-08-07T12:50:38;5.65;;;5.20;;
12383;SDS011;6256;63.808;20.336;2023-08-07T12:53:04;7.38;;;6.15;;
12383;SDS011;6256;63.808;20.336;2023-08-07T12:55:31;7.10;;;5.63;;
12383;SDS011;6256;63.808;20.336;2023-08-07T12:57:57;6.30;;;5.75;;
12383;SDS011;6256;63.808;20.336;2023-08-07T13:00:23;6.65;;;6.05;;
12383;SDS011;6256;63.808;20.336;2023-08-07T13:02:50;6.00;;;5.55;;
12383;SDS011;6256;63.808;20.336;2023-08-07T13:05:17;6.30;;;5.80;;
12383;SDS011;6256;63.808;20.336;2023-08-07T13:07:43;6.13;;;5.63;;
12383;SDS011;6256;63.808;20.336;2023-08-07T13:10:10;7.07;;;6.10;;
12383;SDS011;6256;63.808;20.336;2023-08-07T13:12:38;6.72;;;6.13;;
12383;SDS011;6256;63.808;20.336;2023-08-07T13:15:06;6.53;;;5.93;;
12383;SDS011;6256;63.808;20.336;2023-08-07T13:17:34;6.28;;;5.68;;
12383;SDS011;6256;63.808;20.336;2023-08-07T13:20:00;7.10;;;6.40;;
12383;SDS011;6256;63.808;20.336;2023-08-07T13:22:28;6.13;;;5.53;;
12383;SDS011;6256;63.808;20.336;2023-08-07T13:24:54;6.22;;;5.72;;
12383;SDS011;6256;63.808;20.336;2023-08-07T13:27:19;6.05;;;5.45;;
12383;SDS011;6256;63.808;20.336;2023-08-07T13:29:46;6.10;;;5.47;;
12383;SDS011;6256;63.808;20.336;2023-08-07T13:32:13;5.65;;;5.20;;
12383;SDS011;6256;63.808;20.336;2023-08-07T13:34:39;6.45;;;5.85;;
12383;SDS011;6256;63.808;20.336;2023-08-07T13:37:06;5.70;;;5.15;;
12383;SDS011;6256;63.808;20.336;2023-08-07T13:39:32;6.10;;;5.63;;
12383;SDS011;6256;63.808;20.336;2023-08-07T13:41:58;5.88;;;5.38;;
12383;SDS011;6256;63.808;20.336;2023-08-07T13:44:27;5.78;;;5.28;;
12383;SDS011;6256;63.808;20.336;2023-08-07T13:46:56;6.25;;;5.70;;
12383;SDS011;6256;63.808;20.336;2023-08-07T13:49:22;6.00;;;5.47;;
12383;SDS011;6256;63.808;20.336;2023-08-07T13:51:48;5.43;;;5.03;;
12383;SDS011;6256;63.808;20.336;2023-08-07T13:54:14;6.38;;;5.88;;
12383;SDS011;6256;63.808;20.336;2023-08-07T13:56:40;6.45;;;5.82;;
12383;SDS011;6256;63.808;20.336;2023-08-07T13:59:06;8.18;;;5.68;;
12383;SDS011;6256;63.808;20.336;2023-08-07T14:01:33;6.25;;;5.75;;
12383;SDS011;6256;63.808;20.336;2023-08-07T14:04:00;6.45;;;5.80;;
12383;SDS011;6256;63.808;20.336;2023-08-07T14:06:26;6.90;;;6.30;;
12383;SDS011;6256;63.808;20.336;2023-08-07T14:08:52;7.40;;;6.55;;
12383;SDS011;6256;63.808;20.336;2023-08-07T14:11:18;6.53;;;6.00;;
12383;SDS011;6256;63.808;20.336;2023-08-07T14:13:45;7.22;;;6.63;;
12383;SDS011;6256;63.808;20.336;2023-08-07T14:16:11;6.30;;;5.80;;
12383;SDS011;6256;63.808;20.336;2023-08-07T14:18:37;7.38;;;6.68;;
12383;SDS011;6256;63.808;20.336;2023-08-07T14:21:03;7.18;;;6.43;;
12383;SDS011;6256;63.808;20.336;2023-08-07T14:23:29;7.35;;;6.65;;
12383;SDS011;6256;63.808;20.336;2023-08-07T14:25:55;7.63;;;6.85;;
12383;SDS011;6256;63.808;20.336;2023-08-07T14:28:21;6.82;;;6.32;;
12383;SDS011;6256;63.808;20.336;2023-08-07T14:30:47;7.50;;;6.38;;
12383;SDS011;6256;63.808;20.336;2023-08-07T14:33:13;7.35;;;6.65;;
12383;SDS011;6256;63.808;20.336;2023-08-07T14:35:39;7.47;;;6.75;;
12383;SDS011;6256;63.808;20.336;2023-08-07T14:38:05;7.28;;;6.20;;
12383;SDS011;6256;63.808;20.336;2023-08-07T14:40:31;7.70;;;7.00;;
12383;SDS011;6256;63.808;20.336;2023-08-07T14:42:56;7.53;;;6.80;;
12383;SDS011;6256;63.808;20.336;2023-08-07T14:45:22;7.85;;;7.15;;
12383;SDS011;6256;63.808;20.336;2023-08-07T14:47:49;7.50;;;6.90;;